KR-0332 weather

Hanyang Water Marine Council Heliport
Busan, Busan Gwang'yeogsi, South Korea

Public forecast

Using degrees Celsius for public forecast. Weather courtesy of forecast.io.

METAR (pilot weather report)

Closest report is Gimhae International Airport, 10.8 nm (19.9 km) W. Retrieved 2019/08/21 01:31 UTC (10 minutes ago):

RKPK 210131Z 36003KT 9000 BKN025 OVC030 27/23 Q1010 RMK CIG025

TAF (pilot weather forecast)

Forecast is more than 12 hours old.

Closest forecast is Gimhae International Airport, 10.8 nm (19.9 km) W. Retrieved 2019/08/20 00:00 UTC (1 day ago):

TAF RKPK 202300Z 2100/2206 03006KT 9999 BKN030 BKN100 TX29/2105Z TN25/2120Z BECMG 2106/2107 18006KT 8000 -RA SCT015 BKN030